Tiempo atmosférico en la estación meteorológica de Santander, Cantabria (52 m.)



Fecha
DESCASC
Temp. máxima en grados centígrados (hora)
DESCASC
Temp. mínima en grados centígrados (hora)
DESCASC
Temp. media en grados centígrados
DESCASC
Racha de viento máxima en m/sg (hora)
DESCASC
Velocidad máxima media en intervalos de 10 minutos(hora)
DESCASC
Precipitaciones diarias en mm
DESCASC
Precipitaciones de 00:00 a 06:00 en mm
DESCASC
Precipitaciones de 06:00 a 12:00 en mm
DESCASC
Precipitaciones de 12:00 a 18:00 en mm
DESCASC
Precipitaciones de 18:00 a 24:00 en mm
DESCASC
10-11-2019 13.3 (15:30) 9.6 (00:00) 11.5 26.94 (07:50) 16.94 (07:50) 11.4 1.6 5 0.4 4.4
09-11-2019 14.9 (15:10) 10.2 (00:00) 12.5 23.61 (15:30) 16.67 (19:50) 19 4.8 0 6.2 8
08-11-2019 13.5 (22:20) 7.9 (00:00) 10.7 25.83 (11:10) 17.22 (15:20) 35 4.6 10.6 13 6.8
07-11-2019 14.4 (00:00) 8.6 (00:00) 11.5 23.61 (15:50) 15.83 (05:20) 21.6 17.2 2.8 1.2 0.4
06-11-2019 17.2 (15:10) 11.6 (00:00) 14.4 19.72 (00:20) 12.5 (01:10) 12 0 2.2 0 9.8
05-11-2019 -- (--) -- (--) -- 24.44 (07:30) 16.11 (08:00) 17.8 0 10.2 4 3.6
04-11-2019 18.1 (00:40) 12.5 (00:00) 15.3 25.28 (08:40) 15.83 (08:40) 6.2 0 5 1.2 0
03-11-2019 18.2 (23:50) 12.1 (00:00) 15.2 34.17 (03:20) 21.67 (03:20) 8.9 6.1 1.4 0 1.4
02-11-2019 19 (00:40) 15.1 (00:00) 17.1 14.17 (01:00) 10.28 (01:10) 1.8 0.8 1 0 0
01-11-2019 22.6 (12:40) 16.4 (00:00) 19.5 9.44 (05:00) 5.83 (15:10) 3 1.6 0 1.2 0.2
31-10-2019 19.3 (13:30) 16.7 (18:40) 18 9.17 (10:50) 6.39 (04:30) 0.6 0.2 0 0 0.4
30-10-2019 22.2 (16:50) 14.8 (00:00) 18.5 10 (20:50) 6.67 (20:50) 0.4 0 0 0 0.4
29-10-2019 20.8 (15:30) 14.3 (00:00) 17.5 7.5 (08:50) 5.28 (09:00) 0 0 0 0 0
28-10-2019 20.6 (13:10) 15.9 (00:00) 18.3 5.83 (14:10) 3.61 (16:00) 0 0 0 0 0
27-10-2019 21.9 (12:30) 15.2 (00:00) 18.5 5.56 (00:20) 4.44 (00:30) 0 0 0 0 0
26-10-2019 27.4 (14:50) 13.2 (00:00) 20.3 6.67 (18:20) 5.28 (18:30) 0 0 0 0 0
25-10-2019 18.5 (14:20) 13.9 (00:00) 16.2 5.83 (16:00) 4.72 (04:40) 0 0 0 0 0
24-10-2019 18.1 (14:10) 11.1 (00:00) 14.6 15.56 (02:50) 9.72 (15:10) 26.4 23.2 0.4 2.8 0
23-10-2019 16.3 (12:50) 12 (00:00) 14.1 25.28 (19:40) 16.39 (18:20) 69.2 6.8 22.2 0.6 39.6
22-10-2019 14.5 (19:00) 10.3 (00:00) 12.4 12.22 (19:00) 8.89 (19:00) 13.4 0 0 5 8.4
21-10-2019 16.3 (12:10) 10.8 (00:00) 13.5 10 (08:40) 5.56 (13:30) 8 2.2 5.8 0 0
20-10-2019 14.1 (05:10) 10.8 (00:00) 12.5 14.72 (03:10) 10.28 (03:10) 34.2 14.4 10 5.6 4.2
19-10-2019 16.9 (10:40) 12.9 (00:00) 14.9 8.89 (08:00) 6.67 (19:20) 19 0.6 1 4.2 13.2
18-10-2019 19.3 (13:30) 15.9 (00:00) 17.6 5.28 (13:20) 4.17 (22:10) 0 0 0 0 0
17-10-2019 20 (00:40) 16.5 (00:00) 18.3 14.17 (00:40) 9.44 (02:10) 2.6 2.6 0 0 0
16-10-2019 22.9 (15:00) 16.3 (00:00) 19.6 16.67 (12:20) 10.56 (12:20) 1 0 0.4 0 0.6
15-10-2019 20.4 (17:20) 13.3 (00:00) 16.8 18.61 (01:10) 13.06 (01:40) 0 0 0 0 0
14-10-2019 22.2 (04:20) 13.6 (00:00) 17.9 18.89 (22:40) 12.5 (23:59) 8 0 2.8 1.6 3.6

Gráficas

Temp. máximas Temp. mínimas Temp. medias Precipitaciones Rachas de viento máximas Velocidades máximas media en intervalos de 10 minutos

Datos horarios

Fecha y hora oficial Temperatura (ºC) Velocidad del viento (km/h) Dirección del viento Racha (km/h) Dirección de racha Precipitación (mm) Presión (hPa) Tendencia (hPa) Humedad (%)
2019-11-12 23:00:00 10.9 4 Este 9 Sudeste 0.2 998.9 -1.8 95
2019-11-12 22:00:00 10.8 4 Sudeste 12 Sudeste 1.8 999.8 -1.6 94
2019-11-12 21:00:00 11 9 Sudeste 16 Este 0.8 1000.2 -2 93
2019-11-12 20:00:00 11 14 Sudeste 20 Sudeste 1.4 1000.7 -2.5 92
2019-11-12 19:00:00 11.3 12 Sudeste 16 Sudeste 2 1001.4 -2.7 91
2019-11-12 18:00:00 12.1 2 Sudeste 9 Sudoeste 0.6 1002.2 -2.8 84
2019-11-12 17:00:00 12.7 7 Sudoeste 12 Sudoeste 0.2 1003.2 -2.7 78
2019-11-12 16:00:00 13.4 7 Sudoeste 27 Oeste 0 1004.1 -2.9 75
2019-11-12 15:00:00 13.8 17 Oeste 33 Oeste 0 1005 -3.1 73
2019-11-12 14:00:00 14.5 22 Oeste 39 Oeste 0 1005.9 -2.6 67
2019-11-12 13:00:00 13.6 25 Oeste 45 Oeste 0 1007 -1.8 72
2019-11-12 12:00:00 13.3 30 Oeste 52 Oeste 0 1008.1 -0.9 72
2019-11-12 11:00:00 12 18 Oeste 48 Oeste 0 1008.5 -0.3 76
2019-11-12 10:00:00 11.6 19 Oeste 38 Oeste 0 1008.8 -0.3 80
2019-11-12 09:00:00 10.9 15 Oeste 55 Oeste 0 1009 -0.2 77
2019-11-12 08:00:00 12 35 Oeste 54 Oeste 0 1008.8 -0.7 76
2019-11-12 07:00:00 12.1 35 Oeste 54 Oeste 0 1009.1 -0.8 78
2019-11-12 06:00:00 12.3 33 Oeste 55 Oeste 0 1009.2 -1.4 80
2019-11-12 05:00:00 11.5 30 Oeste 52 Noroeste 0.2 1009.5 -1.4 86
2019-11-12 04:00:00 11.5 27 Oeste 50 Oeste 0.4 1009.9 -1.5 89
2019-11-12 03:00:00 10.1 17 Oeste 40 Oeste 2.2 1010.6 -1.6 86
2019-11-12 02:00:00 10.4 17 Sudoeste 46 Oeste 0 1010.9 -1.6 85
2019-11-12 01:00:00 11.5 30 Oeste 45 Oeste 0.8 1011.4 -1.3 88
2019-11-12 00:00:00 11.9 26 Oeste 38 Oeste 0.2 1012.2 -0.5 83
2019-11-11 23:00:00 12.4 21 Noroeste 34 Noroeste 0 1012.5 -0.5 78
2019-11-11 22:00:00 12.1 27 Oeste 46 Oeste 0 1012.7 0.1 73
2019-11-11 21:00:00 12.9 29 Noroeste 43 Noroeste 0 1012.7 0.6 63
2019-11-11 20:00:00 13.1 21 Noroeste 46 Noroeste 0 1013 0.9 69
2019-11-11 19:00:00 12.8 34 Noroeste 48 Norte 0.2 1012.6 0.7 71
2019-11-11 18:00:00 13 25 Noroeste 41 Noroeste 0 1012.1 1 72
2019-11-11 17:00:00 13.4 29 Noroeste 57 Norte 0 1012.1 1.1 65
2019-11-11 16:00:00 13 30 Noroeste 62 Norte 0 1011.9 1.4 73
2019-11-11 15:00:00 14.1 43 Norte 57 Noroeste 0 1011.1 1.1 71
2019-11-11 14:00:00 13.8 35 Noroeste 61 Noroeste 0 1011 2.3 63
2019-11-11 13:00:00 14.2 51 Noroeste 73 Norte 0 1010.5 3.6 62
2019-11-11 12:00:00 13.1 52 Noroeste 78 Norte 0.6 1010 2.9 81
2019-11-11 11:00:00 13.3 52 Noroeste 82 Noroeste 0.2 1008.7 1.7 94
2019-11-11 10:00:00 12 22 Sudoeste 34 Sudoeste 0 1006.9 -0.6 96
2019-11-11 09:00:00 10.4 15 Sudoeste 26 Sudoeste 0 1007.1 -1.5 91
2019-11-11 08:00:00 10.7 18 Sudoeste 27 Sudoeste 0 1007 -2.1 84
2019-11-11 07:00:00 10.7 14 Sudoeste 23 Sudoeste 0 1007.5 -2.2 83
2019-11-11 06:00:00 11.2 14 Sudoeste 24 Sudoeste 0 1008.6 -1.2 76
2019-11-11 05:00:00 11.1 12 Sudoeste 24 Sudoeste 0 1009.1 -1.4 77
2019-11-11 04:00:00 11.1 13 Sudoeste 27 Oeste 0 1009.7 -0.8 79
2019-11-11 03:00:00 11 15 Sudoeste 34 Oeste 0 1009.8 -1.2 83
2019-11-11 02:00:00 10.5 15 Sudoeste 27 Sudoeste 0 1010.5 -0.2 86
2019-11-11 01:00:00 10.3 15 Sudoeste 35 Oeste 0 1010.5 -0.5 88
2019-11-11 00:00:00 11.1 22 Oeste 39 Oeste 1.8 1011 0.6 93
2019-11-10 23:00:00 10.9 18 Oeste 36 Oeste 0 1010.7 -0.3 86
2019-11-10 22:00:00 13 18 Noroeste 42 Noroeste 0 1011 -0.4 71
2019-11-10 21:00:00 12.4 23 Noroeste 44 Noroeste 0 1010.4 0 76
2019-11-10 20:00:00 12.5 30 Noroeste 45 Noroeste 0 1011 0.9 73
2019-11-10 19:00:00 10.3 25 Norte 70 Noroeste 2.6 1011.4 1.8 88
2019-11-10 18:00:00 11.3 27 Norte 69 Norte 0.4 1010.4 1.2 73
2019-11-10 17:00:00 12.4 24 Noroeste 57 Noroeste 0 1010.1 0.8 75
2019-11-10 16:00:00 13 27 Noroeste 50 Norte 0 1009.6 0.1 71
2019-11-10 15:00:00 13 29 Noroeste 57 Noroeste 0 1009.2 -0.8 70
2019-11-10 14:00:00 12.7 30 Noroeste 71 Noroeste 0 1009.3 0.2 71
2019-11-10 13:00:00 12.2 31 Noroeste 53 Noroeste 0 1009.5 0.4 74
2019-11-10 12:00:00 9.7 33 Norte 66 Noroeste 0.2 1010 1.3 85
2019-11-10 11:00:00 11 41 Norte 78 Norte 1 1009.1 0.9 79
2019-11-10 10:00:00 10.9 36 Noroeste 84 Norte 2 1009.1 0.9 80
2019-11-10 09:00:00 11.8 37 Noroeste 76 Norte 0 1008.7 -0.5 75
2019-11-10 08:00:00 11.8 44 Noroeste 97 Noroeste 0.4 1008.2 -0.2 79
2019-11-10 07:00:00 11.1 35 Norte 66 Norte 1.4 1008.2 -0.7 82
2019-11-10 06:00:00 11.3 51 Noroeste 72 Noroeste 0.6 1009.2 -0.2 71
2019-11-10 05:00:00 12.4 44 Noroeste 69 Noroeste 0 1008.4 -1.6 70
2019-11-10 04:00:00 12.7 40 Noroeste 71 Noroeste 0 1008.9 -0.8 64
2019-11-10 03:00:00 12.4 40 Noroeste 60 Noroeste 0.2 1009.4 -0.2 67
2019-11-10 02:00:00 11.1 37 Noroeste 78 Noroeste 0 1010 0.3 75
2019-11-10 01:00:00 11.2 36 Noroeste 76 Norte 0.8 1009.7 0.3 71
2019-11-10 00:00:00 12.1 31 Noroeste 79 Noroeste 1 1009.6 0.5 71
2019-11-09 23:00:00 11.2 33 Noroeste 67 Noroeste 0.4 1009.7 0.2 76
2019-11-09 22:00:00 12.9 33 Noroeste 64 Noroeste 0 1009.4 1.4 71
2019-11-09 21:00:00 12.8 41 Noroeste 60 Noroeste 1.8 1009.1 2.4 66
2019-11-09 20:00:00 10.7 45 Noroeste 84 Norte 1 1009.5 2.7 88
2019-11-09 19:00:00 11 42 Noroeste 81 Noroeste 3.8 1008 1.1 91
2019-11-09 18:00:00 12.5 49 Noroeste 72 Noroeste 2.8 1006.7 0.2 87
2019-11-09 17:00:00 14.1 48 Noroeste 77 Noroeste 0 1006.8 0.7 78
2019-11-09 16:00:00 14.8 53 Noroeste 85 Noroeste 0 1006.9 0.4 73
2019-11-09 15:00:00 14.8 53 Noroeste 78 Noroeste 2.2 1006.5 -1.9 76
2019-11-09 14:00:00 13.6 36 Oeste 65 Oeste 1.2 1006.1 -3.2 94
2019-11-09 13:00:00 11.3 19 Sur 36 Sur 0 1006.5 -3.2 89
2019-11-09 12:00:00 10.3 17 Sudoeste 30 Sudoeste 0 1008.4 -2 88
2019-11-09 11:00:00 10.7 17 Sur 31 Sur 0 1009.3 -1.1 79
2019-11-09 10:00:00 11.1 15 Sudoeste 26 Sur 0 1009.7 -1.2 74
2019-11-09 09:00:00 11.2 17 Sudoeste 27 Sudoeste 0 1010.4 -0.8 73
2019-11-09 08:00:00 11.3 16 Sudoeste 25 Sudoeste 0 1010.4 -0.8 70
2019-11-09 07:00:00 11.5 15 Sudoeste 46 Oeste 0 1010.9 -0.7 71
2019-11-09 06:00:00 12.4 26 Oeste 50 Oeste 0 1011.2 -0.4 74
2019-11-09 05:00:00 12.5 35 Oeste 54 Oeste 0 1011.2 -0.4 81
2019-11-09 04:00:00 12 36 Oeste 55 Noroeste 2 1011.6 -0.2 84
2019-11-09 03:00:00 11.1 35 Oeste 54 Noroeste 2.6 1011.6 -0.1 93
2019-11-09 02:00:00 11.4 33 Oeste 60 Oeste 0 1011.6 -0.1 91
2019-11-09 01:00:00 11.6 41 Oeste 67 Oeste 0.2 1011.8 0.3 89
2019-11-09 00:00:00 11.6 34 Oeste 64 Noroeste 1.8 1011.7 0.7 86
2019-11-08 23:00:00 13 37 Oeste 59 Noroeste 0 1011.7 1.3 80
2019-11-08 22:00:00 13.3 44 Noroeste 62 Noroeste 0 1011.5 1.8 63
2019-11-08 21:00:00 12.9 41 Noroeste 64 Norte 0.2 1011 1.9 76
2019-11-08 20:00:00 12.2 41 Noroeste 76 Noroeste 0.4 1010.4 2.1 79
2019-11-08 19:00:00 11.3 49 Noroeste 75 Oeste 4.4 1009.7 2.5 88
2019-11-08 18:00:00 11 50 Noroeste 85 Noroeste 3.6 1009.1 3 88
2019-11-08 17:00:00 11 48 Noroeste 93 Noroeste 3.4 1008.3 3.1 92
2019-11-08 16:00:00 11.2 46 Noroeste 84 Noroeste 3.6 1007.2 2.1 89
2019-11-08 15:00:00 11.9 57 Noroeste 91 Noroeste 1.6 1006.1 1.5 84
2019-11-08 14:00:00 13 59 Noroeste 85 Noroeste 0.4 1005.2 1.7 80
2019-11-08 13:00:00 12 52 Noroeste 77 Noroeste 0.4 1005.1 1.8 83
2019-11-08 12:00:00 12.2 50 Noroeste 93 Noroeste 2.8 1004.6 2 83
2019-11-08 11:00:00 11.2 56 Noroeste 81 Noroeste 4.2 1003.5 0.7 86
2019-11-08 10:00:00 12.8 51 Noroeste 86 Oeste 0 1003.3 1.3 75
2019-11-08 09:00:00 12.7 53 Noroeste 81 Noroeste 0.2 1002.6 0.8 70
2019-11-08 08:00:00 10 42 Oeste 79 Oeste 1.6 1002.8 1.3 84
2019-11-08 07:00:00 9.4 42 Oeste 81 Oeste 1.8 1002 0.7 86
2019-11-08 06:00:00 9.6 34 Oeste 76 Oeste 0.8 1001.8 0.6 86
2019-11-08 05:00:00 8.6 30 Oeste 53 Oeste 0.8 1001.5 0.7 85
2019-11-08 04:00:00 8.3 32 Oeste 59 Oeste 1 1001.3 0 83
2019-11-08 03:00:00 8 27 Sudoeste 51 Sudoeste 0.4 1001.2 0.1 84
2019-11-08 02:00:00 8.3 37 Oeste 68 Oeste 0.2 1000.8 -0.5 81
2019-11-08 01:00:00 8 28 Oeste 75 Oeste 1.4 1001.3 0.1 83
2019-11-08 00:00:00 9.6 48 Oeste 71 Oeste 0.4 1001.1 -0.6 80
2019-11-07 23:00:00 9.8 49 Oeste 80 Oeste 0 1001.3 -0.4 71
2019-11-07 22:00:00 10.2 48 Oeste 72 Oeste 0 1001.2 -0.2 69
2019-11-07 21:00:00 9.6 34 Oeste 71 Oeste 0 1001.7 0 63
2019-11-07 20:00:00 9.1 22 Oeste 73 Oeste 0 1001.7 -0.1 68
2019-11-07 19:00:00 10.1 46 Oeste 70 Oeste 0 1001.4 -0.4 68
2019-11-07 18:00:00 10.4 54 Noroeste 79 Oeste 0 1001.7 0 78
2019-11-07 17:00:00 11.2 34 Oeste 68 Noroeste 0 1001.8 -1 68
2019-11-07 16:00:00 10.6 55 Noroeste 85 Noroeste 0.2 1001.8 -1.2 80
2019-11-07 15:00:00 10.9 45 Oeste 80 Noroeste 0.8 1001.7 -1.8 78
2019-11-07 14:00:00 9.9 54 Noroeste 82 Noroeste 0.2 1002.8 -0.9 80
2019-11-07 13:00:00 12.5 41 Oeste 63 Noroeste 0 1003 -0.6 67
2019-11-07 12:00:00 12.8 33 Oeste 60 Oeste 0 1003.5 0.1 66
2019-11-07 11:00:00 11.7 42 Oeste 69 Oeste 0.2 1003.7 0.7 65
2019-11-07 10:00:00 10.6 18 Sudoeste 49 Oeste 0 1003.6 1.2 74
2019-11-07 09:00:00 10 39 Oeste 75 Oeste 0.2 1003.4 0.9 75
2019-11-07 08:00:00 10.3 34 Oeste 77 Oeste 0.8 1003 0.6 78
2019-11-07 07:00:00 11.1 34 Oeste 67 Noroeste 1.6 1002.4 0.5 83
2019-11-07 06:00:00 11.3 35 Oeste 82 Noroeste 3.4 1002.5 0.3 89
2019-11-07 05:00:00 11.5 34 Oeste 72 Oeste 1.4 1002.4 0.1 87
2019-11-07 04:00:00 12.4 37 Noroeste 57 Noroeste 10 1001.9 0.2 88
2019-11-07 03:00:00 12.2 36 Oeste 65 Noroeste 0.8 1002.2 1.1 90
2019-11-07 02:00:00 13.5 43 Oeste 75 Nordeste 0.6 1002.3 1.6 75
2019-11-07 01:00:00 13.6 44 Noroeste 68 Norte 1 1001.7 0.9 89
2019-11-07 00:00:00 14.4 39 Noroeste 63 Oeste 6.8 1001.1 -0.2 92
2019-11-06 23:00:00 13.3 27 Oeste 44 Oeste 1.2 1000.7 -0.9 94
2019-11-06 22:00:00 12.7 10 Sudoeste 18 Sudoeste 1.2 1000.8 -1.6 89
2019-11-06 21:00:00 13.7 11 Sudoeste 17 Sudoeste 0.4 1001.3 -2 80
2019-11-06 20:00:00 13.8 10 Sur 18 Sur 0 1001.6 -2.6 75
2019-11-06 19:00:00 14.4 9 Sur 12 Sur 0.2 1002.4 -2.4 74
2019-11-06 18:00:00 15 5 Sur 17 Oeste 0 1003.3 -2.1 70
2019-11-06 17:00:00 15.5 8 Sudoeste 21 Oeste 0 1004.2 -2 67
2019-11-06 16:00:00 15.9 15 Oeste 26 Noroeste 0 1004.8 -2.1 65
2019-11-06 15:00:00 17.1 17 Oeste 24 Noroeste 0 1005.4 -2.5 63
2019-11-06 14:00:00 13.9 11 Oeste 28 Oeste 0 1006.2 -2.1 84
2019-11-06 13:00:00 12.9 14 Sudoeste 37 Oeste 0 1006.9 -1.4 82
2019-11-06 12:00:00 13.5 30 Oeste 48 Oeste 0 1007.9 -0.1 84
2019-11-06 11:00:00 12 19 Oeste 37 Sudoeste 0.6 1008.3 0.6 90
2019-11-06 10:00:00 11.6 13 Sudoeste 50 Oeste 0.6 1008.3 0.9 86
2019-11-06 09:00:00 12.7 34 Oeste 51 Oeste 1 1008 0.6 84
2019-11-06 08:00:00 12.9 26 Oeste 51 Oeste 0 1007.7 0.6 89
2019-11-06 07:00:00 13.2 30 Oeste 53 Oeste 0 1007.4 0.1 85
2019-11-06 06:00:00 13.2 24 Oeste 47 Noroeste 0 1007.4 0.1 85
2019-11-06 05:00:00 14.1 30 Noroeste 49 Noroeste 0 1007.1 -0.5 78
2019-11-06 04:00:00 14.1 36 Noroeste 58 Noroeste 0 1007.3 0 72
2019-11-06 03:00:00 14.7 36 Noroeste 58 Noroeste 0 1007.3 0.3 65
2019-11-06 02:00:00 14.2 34 Noroeste 62 Noroeste 0 1007.6 1.2 76
2019-11-06 01:00:00 14.4 44 Noroeste 71 Noroeste 0 1007.3 1.5 70
2019-11-06 00:00:00 13.3 43 Noroeste 71 Noroeste 1.4 1007 2 83
2019-11-05 23:00:00 14.5 39 Noroeste 72 Noroeste 0 1006.4 1.9 83
2019-11-05 22:00:00 13.8 43 Noroeste 73 Norte 0.2 1005.8 1.6 80
2019-11-05 21:00:00 13.2 45 Noroeste 71 Norte 1.8 1005 2 88
2019-11-05 20:00:00 14.9 45 Noroeste 69 Noroeste 0.2 1004.5 2.6 77
2019-11-05 19:00:00 14.1 44 Noroeste 70 Noroeste 0 1004.2 2.7 80
2019-11-05 18:00:00 14.5 49 Noroeste 71 Noroeste 0 1003 2.8 75
2019-11-05 17:00:00 13.6 50 Noroeste 72 Noroeste 1.4 1001.9 2.4 82
2019-11-05 16:00:00 13.5 36 Noroeste 71 Noroeste 2.4 1001.5 2 86
2019-11-05 15:00:00 14.7 44 Noroeste 70 Noroeste 0.2 1000.2 1.2 74
2019-11-05 14:00:00 -- 47 Noroeste 68 Noroeste 0 999.5 0.6 70
2019-11-05 13:00:00 -- 49 Noroeste 71 Noroeste 0 999.5 1.8 74
2019-11-05 12:00:00 -- 44 Noroeste 64 Noroeste 0 999 2.1 70
2019-11-05 11:00:00 11.3 28 Oeste 73 Noroeste 4.4 998.9 3.1 95
2019-11-05 10:00:00 12.6 46 Oeste 82 Oeste 4.2 997.7 2.5 84
2019-11-05 09:00:00 12.8 48 Oeste 81 Oeste 0 996.9 1.6 84
2019-11-05 08:00:00 12.8 58 Oeste 88 Oeste 1.6 995.8 0.6 77
2019-11-05 07:00:00 14.3 51 Oeste 78 Oeste 0 995.2 -0.3 62
2019-11-05 06:00:00 14.1 49 Oeste 77 Oeste 0 995.3 -0.3 62
2019-11-05 05:00:00 14.1 50 Oeste 78 Oeste 0 995.2 -0.6 62
2019-11-05 04:00:00 14 48 Oeste 81 Oeste 0 995.5 -0.6 65
2019-11-05 03:00:00 14.1 48 Oeste 71 Oeste 0 995.6 -0.5 63
2019-11-05 02:00:00 12.6 17 Sudoeste 31 Sudoeste 0 995.8 -0.7 64
2019-11-05 01:00:00 13 19 Sudoeste 44 Oeste 0 996.1 -0.3 60
2019-11-05 00:00:00 12.9 19 Sudoeste 33 Oeste 0 996.1 0.4 64
2019-11-04 23:00:00 12.5 15 Sudoeste 29 Sudoeste 0 996.5 0.3 65
2019-11-04 22:00:00 13.1 15 Sudoeste 59 Oeste 0 996.4 0.1 64
2019-11-04 21:00:00 14.1 39 Oeste 75 Noroeste 0 995.7 0 62
2019-11-04 20:00:00 14.5 36 Oeste 59 Oeste 0 996.2 0.3 61
2019-11-04 19:00:00 14.8 42 Oeste 66 Oeste 0 996.3 0.1 68
2019-11-04 18:00:00 14.5 39 Oeste 63 Oeste 0 995.7 -0.1 69
2019-11-04 17:00:00 14.3 37 Oeste 58 Oeste 0.8 995.9 0 75
2019-11-04 16:00:00 14.8 37 Oeste 60 Noroeste 0 996.2 0.4 77
2019-11-04 15:00:00 14.9 42 Oeste 68 Noroeste 0 995.8 0.2 75
2019-11-04 14:00:00 14.3 43 Noroeste 78 Noroeste 0.2 995.9 0.5 80
2019-11-04 13:00:00 14.8 43 Noroeste 75 Oeste 0.2 995.8 0.7 84
2019-11-04 12:00:00 15.2 49 Oeste 82 Oeste 0.4 995.6 0.9 78
2019-11-04 11:00:00 14.6 48 Oeste 74 Oeste 1.8 995.4 0.9 89
2019-11-04 10:00:00 15.1 39 Oeste 71 Oeste 0.6 995.1 0.5 89
2019-11-04 09:00:00 14.2 54 Oeste 91 Noroeste 1 994.7 0.2 92
2019-11-04 08:00:00 15.3 44 Noroeste 70 Noroeste 0.6 994.5 0.9 93
2019-11-04 07:00:00 15.8 38 Oeste 68 Noroeste 0.6 994.6 0.5 88
2019-11-04 06:00:00 17.3 9 Noroeste 32 Norte 0 994.5 -0.2 82
2019-11-04 05:00:00 17.1 9 Sudoeste 16 Sudoeste 0 993.6 -1.4 82
2019-11-04 04:00:00 17.4 9 Oeste 16 Oeste 0 994.1 -1.4 82
2019-11-04 03:00:00 17.4 9 Sudoeste 21 Sudoeste 0 994.7 -0.8 75
2019-11-04 02:00:00 17.7 11 Sudoeste 29 Oeste 0 995 -1.1 78
2019-11-04 01:00:00 18 14 Sudoeste 30 Oeste 0 995.5 -0.5 71
2019-11-04 00:00:00 17.8 15 Sudoeste 39 Oeste 0 995.5 -0.8 68
2019-11-03 23:00:00 17.6 14 Sudoeste 31 Sudoeste 0 996.1 -0.5 72
2019-11-03 22:00:00 16.1 21 Sudoeste 30 Sur 0 996 -1 75
2019-11-03 21:00:00 14.9 20 Sudoeste 44 Sur 0.4 996.3 -0.9 85
2019-11-03 20:00:00 14.1 23 Sur 34 Sur 0.8 996.6 -0.9 86
2019-11-03 19:00:00 15.7 19 Sur 27 Sudoeste 0 997 -0.5 75
2019-11-03 18:00:00 16.5 13 Sur 27 Oeste 0 997.2 -0.2 67
2019-11-03 17:00:00 17.1 23 Oeste 45 Oeste 0 997.5 0 68
2019-11-03 16:00:00 16.3 30 Oeste 59 Oeste 0 997.5 -0.1 70
2019-11-03 15:00:00 16.5 39 Oeste 64 Oeste 0 997.4 0 67
2019-11-03 14:00:00 16.8 41 Oeste 68 Oeste 0 997.5 0.6 64
2019-11-03 13:00:00 15.5 48 Oeste 74 Oeste 0 997.6 1.8 66
2019-11-03 12:00:00 15.7 46 Oeste 78 Oeste 0 997.4 2.6 68
2019-11-03 11:00:00 14.2 55 Oeste 79 Oeste 0 996.9 -- 73
2019-11-03 10:00:00 13.8 51 Oeste 87 Oeste 0 995.8 -- 76
2019-11-03 09:00:00 12.8 58 Oeste 104 Oeste 1 994.8 -- 83
2019-11-03 08:00:00 12.8 52 Oeste 99 Oeste 0.2 -- -- 82
2019-11-03 07:00:00 13.1 61 Oeste 104 Oeste 0 -- -- 79
2019-11-03 06:00:00 13.5 66 Oeste 109 Noroeste 3.6 -- -- 82
2019-11-03 05:00:00 13.5 59 Oeste 113 Oeste 1.4 988.6 5 87
2019-11-03 04:00:00 14.7 72 Oeste 123 Noroeste 2.6 -- -- 86
2019-11-03 03:00:00 14 63 Oeste -- -- 1.4 -- -- 92
2019-11-03 02:00:00 16.1 23 Sur 39 Sur 0 983.6 -6.2 68
2019-11-03 01:00:00 15.1 16 Sudeste 21 Sudeste 0 986.2 -4.7 94
2019-11-03 00:00:00 15.3 2 Este 6 Este 0 988.6 -3.3 91
2019-11-02 23:00:00 15.1 5 Sur 10 Sudoeste 0 989.8 -3 90
2019-11-02 22:00:00 15.4 8 Sur 12 Sur 0 990.9 -2.4 89
2019-11-02 21:00:00 15.2 8 Sur 10 Sudeste 0 991.9 -2.5 90
2019-11-02 20:00:00 15.4 6 Sur 18 Sudeste 0 992.8 -2.8 89
2019-11-02 19:00:00 15.7 11 Sudeste 20 Sudeste 0 993.3 -2.8 89
2019-11-02 18:00:00 16.3 6 Sur 12 Oeste 0 994.4 -2.6 84
2019-11-02 17:00:00 16.8 7 Sudoeste 13 Sur 0 995.6 -2 80
2019-11-02 16:00:00 16.9 8 Sudoeste 27 Oeste 0 996.1 -2 79
2019-11-02 15:00:00 17.2 19 Oeste 40 Oeste 0 997 -1.5 79
2019-11-02 14:00:00 17.2 23 Noroeste 35 Noroeste 0 997.6 -1.9 80
2019-11-02 13:00:00 17.2 17 Oeste 32 Oeste 0 998.1 -2 84
2019-11-02 12:00:00 17.1 23 Oeste 37 Oeste 0 998.5 -1.5 83
2019-11-02 11:00:00 16.7 28 Oeste 48 Noroeste 0 999.5 -0.5 82
2019-11-02 10:00:00 16.3 27 Oeste 51 Noroeste 0 1000.1 0.1 87
2019-11-02 09:00:00 16.6 34 Noroeste 48 Noroeste 0.2 1000 -0.3 88
2019-11-02 08:00:00 16.6 25 Noroeste 46 Oeste 0 1000 -0.2 91
2019-11-02 07:00:00 16.5 24 Oeste 39 Oeste 0.8 1000 -0.6 93
2019-11-02 06:00:00 16.8 27 Oeste 37 Oeste 0.6 1000.3 -0.9 91
2019-11-02 05:00:00 16.9 11 Oeste 27 Oeste 0 1000.2 -1.7 93
2019-11-02 04:00:00 16.9 19 Oeste 33 Oeste 0 1000.6 -1.2 92
2019-11-02 03:00:00 16.8 23 Oeste 43 Noroeste 0 1001.2 -0.6 92
2019-11-02 02:00:00 17 26 Oeste 50 Noroeste 0 1001.9 -0.3 93
2019-11-02 01:00:00 17.4 32 Noroeste 51 Noroeste 0.2 1001.8 -0.8 91
2019-11-02 00:00:00 17.7 13 Sur 17 Sur 0.2 1001.8 -1 91
2019-11-01 23:00:00 17.5 5 Sudoeste 16 Sur 0 1002.2 -0.8 93
2019-11-01 22:00:00 17.8 9 Sur 17 Sur 0 1002.6 -0.6 91
2019-11-01 21:00:00 18.3 10 Sudoeste 22 Oeste 0 1002.8 -0.1 90
2019-11-01 20:00:00 18.5 11 Oeste 21 Oeste 0 1003 -0.2 89
2019-11-01 19:00:00 18.8 11 Oeste 15 Sur 0 1003.2 -0.8 88
2019-11-01 18:00:00 19.5 8 Sudoeste 23 Sur 0 1002.9 -2.6 85
2019-11-01 17:00:00 20.3 9 Sudoeste 15 Sur 0 1003.2 -2.2 81
2019-11-01 16:00:00 19.6 9 Sudoeste 32 Sudoeste 0.4 1004 -2.4 85
2019-11-01 15:00:00 19.6 18 Oeste 28 Oeste 0.6 1005.5 -1.7 86
2019-11-01 14:00:00 21.4 2 Norte 14 Sudoeste 0.2 1005.4 -2.4 80
2019-11-01 13:00:00 22.3 8 Sudoeste 15 Oeste 0 1006.4 -1.6 69
2019-11-01 12:00:00 22.2 10 Sur 19 Sudoeste 0 1007.2 -1.1 69
2019-11-01 11:00:00 21.5 12 Sudoeste 23 Sur 0 1007.8 -0.8 70
2019-11-01 10:00:00 20.1 15 Sur 26 Sudoeste 0 1008 -1.5 77
2019-11-01 09:00:00 18.7 17 Sur 24 Sur 0 1008.3 -1.5 85
2019-11-01 08:00:00 18.2 15 Sur 23 Sur 0 1008.6 -1.3 89
2019-11-01 07:00:00 18.9 14 Oeste 19 Oeste 0 1009.5 -0.6 86
2019-11-01 06:00:00 18.9 13 Sudoeste 24 Oeste 0 1009.8 -0.7 84
2019-11-01 05:00:00 19.5 17 Oeste 34 Oeste 0 1009.9 -2 82
2019-11-01 04:00:00 18.9 14 Sudoeste 26 Sur 0 1010.1 -1.6 85
2019-11-01 03:00:00 17 19 Sur 26 Sur 1.4 1010.5 -1.6 96
2019-11-01 02:00:00 16.9 14 Sudoeste 21 Sudoeste 0.2 1011.9 -1.1 94
2019-11-01 01:00:00 16.5 6 Este 16 Sur 0 1011.7 -1.8 94
2019-11-01 00:00:00 16.7 12 Sudeste 17 Sudeste 0 1012.1 -1.4 95
2019-10-31 23:00:00 17.3 4 Nordeste 9 Sur 0.4 1013 -1 90
2019-10-31 22:00:00 17.4 6 Sur 15 Sudeste 0 1013.5 -0.8 86
2019-10-31 21:00:00 17.2 10 Sudeste 19 Sudeste 0 1013.5 -1.1 89
2019-10-31 20:00:00 17 17 Sudeste 20 Sudeste 0 1014 -0.7 93
2019-10-31 19:00:00 16.8 10 Sudeste 12 Sudeste 0 1014.3 -0.6 95
2019-10-31 18:00:00 17 5 Este 8 Este 0 1014.6 -0.4 93
2019-10-31 17:00:00 18.1 4 Nordeste 8 Nordeste 0 1014.7 -0.8 90
2019-10-31 16:00:00 18.6 5 Norte 6 Nordeste 0 1014.9 -0.9 88
2019-10-31 15:00:00 18.7 5 Norte 12 Noroeste 0 1015 -1.4 86
2019-10-31 14:00:00 18.8 9 Noroeste 18 Oeste 0 1015.5 -1.1 85
2019-10-31 13:00:00 19 15 Oeste 23 Oeste 0 1015.8 -0.6 83
2019-10-31 12:00:00 17.6 15 Oeste 25 Oeste 0 1016.4 0.3 94
2019-10-31 11:00:00 17.5 18 Oeste 33 Oeste 0 1016.6 1.2 92
2019-10-31 10:00:00 18 12 Sudoeste 21 Oeste 0 1016.4 1.5 89
2019-10-31 09:00:00 17.3 13 Oeste 23 Oeste 0 1016.1 1.4 93
2019-10-31 08:00:00 17.1 15 Oeste 25 Oeste 0 1015.4 1 93
2019-10-31 07:00:00 17.1 13 Oeste 23 Noroeste 0 1014.9 0.7 94
2019-10-31 06:00:00 17.2 15 Noroeste 29 Noroeste 0 1014.7 0.4 92
2019-10-31 05:00:00 17 18 Noroeste 31 Noroeste 0 1014.4 0.4 92
2019-10-31 04:00:00 16.9 16 Noroeste 27 Noroeste 0.2 1014.2 0.2 97
2019-10-31 03:00:00 17.3 21 Noroeste 32 Noroeste 0 1014.3 0.5 93
2019-10-31 02:00:00 17.3 17 Noroeste 29 Noroeste 0 1014 0 95
2019-10-31 01:00:00 17.2 15 Oeste 23 Oeste 0 1014 0 94
2019-10-31 00:00:00 17.3 14 Sudoeste 20 Sudoeste 0 1013.8 0.7 91
2019-10-30 23:00:00 16.8 11 Sudoeste 25 Oeste 0 1014 2.1 96
2019-10-30 22:00:00 17.1 17 Oeste 29 Noroeste 0.4 1014 3.2 96
2019-10-30 21:00:00 17.9 22 Oeste 36 Oeste 0 1013.1 3 94
2019-10-30 20:00:00 18.9 15 Oeste 26 Oeste 0 1011.9 2.1 76
2019-10-30 19:00:00 21.1 13 Sudoeste 24 Sudoeste 0 1010.8 1.1 62
2019-10-30 18:00:00 21 15 Sudoeste 31 Sudoeste 0 1010.1 0.2 63
2019-10-30 17:00:00 22.1 19 Sur 30 Sur 0 1009.8 -0.7 57
2019-10-30 16:00:00 21.6 14 Sur 28 Sur 0 1009.7 -1.3 62
2019-10-30 15:00:00 19.6 12 Sudeste 15 Sudeste 0 1009.9 -1.6 80
2019-10-30 14:00:00 19 5 Este 8 Este 0 1010.5 -1.7 79
2019-10-30 13:00:00 19.6 6 Sudeste 15 Sudeste 0 1011 -1.1 74
2019-10-30 12:00:00 19.6 11 Sudeste 14 Sudeste 0 1011.5 -0.5 74
2019-10-30 11:00:00 17.9 3 Este 4 Este 0 1012.2 0.2 78
2019-10-30 10:00:00 16.7 3 Nordeste 10 Sur 0 1012.1 0.5 81
2019-10-30 09:00:00 15.9 4 Sudeste 12 Sudoeste 0 1012 0.4 80
2019-10-30 08:00:00 14.8 7 Sur 9 Sudeste 0 1012 0.8 86
2019-10-30 07:00:00 15.4 0 Calma 7 Oeste 0 1011.6 0.2 81
2019-10-30 06:00:00 15.6 0 Calma 6 Sudoeste 0 1011.6 0 87
2019-10-30 05:00:00 16 2 Este 9 Sudoeste 0 1011.2 -0.7 84
2019-10-30 04:00:00 15.8 8 Sur 10 Sudoeste 0 1011.4 -0.4 86
2019-10-30 03:00:00 15.8 7 Sudeste 12 Sudeste 0 1011.6 -0.6 87
2019-10-30 02:00:00 16.1 7 Sur 18 Sur 0 1011.9 -0.5 86
2019-10-30 01:00:00 15.7 15 Sudeste 21 Sudeste 0 1011.8 -0.8 89
2019-10-30 00:00:00 16.4 14 Sudeste 20 Sudeste 0 1012.2 -0.4 87
2019-10-29 23:00:00 16.5 15 Sudeste 22 Sudeste 0 1012.4 0.1 88
2019-10-29 22:00:00 16.5 15 Sudeste 19 Sudeste 0 1012.6 0.8 92
2019-10-29 21:00:00 17.1 12 Sudeste 19 Este 0 1012.6 1.4 96
2019-10-29 20:00:00 17.3 10 Este 15 Este 0 1012.3 1.5 95
2019-10-29 19:00:00 17.6 8 Este 13 Este 0 1011.8 1.3 94
2019-10-29 18:00:00 17.7 8 Nordeste 12 Nordeste 0 1011.2 1 92
2019-10-29 17:00:00 18.2 6 Norte 10 Norte 0 1010.8 0.7 90
2019-10-29 16:00:00 19.4 6 Nordeste 17 Este 0 1010.5 0.1 83
2019-10-29 15:00:00 20.6 12 Este 18 Este 0 1010.2 -0.6 72
2019-10-29 14:00:00 19.6 4 Norte 6 Norte 0 1010.1 -0.5 85
2019-10-29 13:00:00 19.5 3 Norte 9 Oeste 0 1010.4 0.5 81
2019-10-29 12:00:00 19.9 5 Oeste 16 Sudoeste 0 1010.8 1.6 80
2019-10-29 11:00:00 18.6 12 Oeste 19 Sudoeste 0 1010.6 2.8 84
2019-10-29 10:00:00 16.9 13 Oeste 23 Oeste 0 1009.9 2.4 87
2019-10-29 09:00:00 16.1 19 Oeste 27 Oeste 0 1009.2 1.8 84
2019-10-29 08:00:00 17 12 Sur 17 Sur 0 1007.8 0.7 70
2019-10-29 07:00:00 15.7 13 Sur 16 Sur 0 1007.5 0.4 78
2019-10-29 06:00:00 16.1 5 Sudeste 13 Sur 0 1007.4 -0.1 75
2019-10-29 05:00:00 14.7 8 Sur 15 Sudeste 0 1007.1 -0.6 84
2019-10-29 04:00:00 15.2 3 Oeste 8 Sur 0 1007.1 -0.9 84
2019-10-29 03:00:00 14.5 6 Sur 8 Sur 0 1007.5 -0.5 93
2019-10-29 02:00:00 15.6 8 Sudoeste 15 Sudoeste 0 1007.7 -0.3 95
2019-10-29 01:00:00 15.8 7 Sudoeste 13 Sudoeste 0 1008 0.2 94
2019-10-29 00:00:00 16.1 8 Sudoeste 12 Oeste 0 1008 0.5 95
2019-10-28 23:00:00 16.6 6 Sudoeste 9 Sudoeste 0 1008 0.7 94
2019-10-28 22:00:00 16.4 7 Oeste 10 Noroeste 0 1007.8 0.6 91
2019-10-28 21:00:00 16.9 6 Oeste 9 Sudoeste 0 1007.5 0.3 89
2019-10-28 20:00:00 16.9 9 Oeste 13 Sudoeste 0 1007.3 -0.1 83
2019-10-28 19:00:00 18.3 10 Sudoeste 18 Sudoeste 0 1007.2 -0.2 68
2019-10-28 18:00:00 17.8 10 Sudoeste 17 Oeste 0 1007.2 0.4 82
2019-10-28 17:00:00 18.3 10 Sudoeste 17 Oeste 0 1007.4 0 88
2019-10-28 16:00:00 18.7 13 Oeste 18 Oeste 0 1007.4 -0.4 83
2019-10-28 15:00:00 19.2 8 Oeste 21 Oeste 0 1006.8 -1.4 81
2019-10-28 14:00:00 19.4 10 Oeste 13 Oeste 0 1007.4 -0.7 71
2019-10-28 13:00:00 19.9 6 Noroeste 9 Noroeste 0 1007.8 -0.3 60
2019-10-28 12:00:00 19.4 3 Norte 5 Nordeste 0 1008.2 0.3 66
2019-10-28 11:00:00 18.8 2 Este 8 Sur 0 1008.1 0.4 73
2019-10-28 10:00:00 18.6 5 Sur 12 Sudoeste 0 1008.1 0.5 70
2019-10-28 09:00:00 16.2 8 Sur 14 Oeste 0 1007.9 0.3 81
2019-10-28 08:00:00 16.4 10 Sudoeste 13 Oeste 0 1007.7 -0.2 76
2019-10-28 07:00:00 16.3 8 Oeste 15 Sudoeste 0 1007.6 -0.4 75
2019-10-28 06:00:00 16.4 9 Sudoeste 15 Oeste 0 1007.6 -0.7 82
2019-10-28 05:00:00 16 12 Oeste 17 Oeste 0 1007.9 -0.6 84
2019-10-28 04:00:00 16.1 10 Oeste 13 Oeste 0 1008 -0.7 88
2019-10-28 03:00:00 16.3 3 Sudoeste 9 Sur 0 1008.3 -0.6 87
2019-10-28 02:00:00 16.6 3 Nordeste 10 Sur 0 1008.5 -1.4 87
2019-10-28 01:00:00 16.7 9 Sur 14 Sur 0 1008.7 -1.4 87
2019-10-28 00:00:00 17.4 3 Nordeste 11 Sur 0 1008.9 -1.9 83
2019-10-27 23:00:00 17.3 5 Sur 11 Sudeste 0 1009.9 -0.7 87
2019-10-27 22:00:00 17.6 5 Sudoeste 15 Sudoeste 0 1010.1 -0.4 84
2019-10-27 21:00:00 17.3 13 Oeste 15 Oeste 0 1010.8 0.9 86
2019-10-27 20:00:00 17.7 5 Oeste 11 Oeste 0 1010.6 1.3 89
2019-10-27 19:00:00 17.8 2 Nordeste 12 Oeste 0 1010.5 1.1 90
2019-10-27 18:00:00 18.2 6 Nordeste 17 Nordeste 0 1009.9 0.3 87
2019-10-27 17:00:00 18.5 12 Nordeste 19 Nordeste 0 1009.3 -0.4 85
2019-10-27 16:00:00 19.1 10 Este 14 Este 0 1009.4 -1 70
2019-10-27 15:00:00 19.6 7 Este 14 Este 0 1009.6 -1.3 73
2019-10-27 14:00:00 20.9 9 Este 13 Este 0 1009.7 -1.7 58
2019-10-27 13:00:00 21.4 6 Este 12 Sudeste 0 1010.4 -0.9 52
2019-10-27 12:00:00 21.6 10 Sudeste 13 Sudeste 0 1010.9 -0.3 53
2019-10-27 11:00:00 19.9 3 Sur 8 Sur 0 1011.4 0.7 59
2019-10-27 10:00:00 18.5 6 Sudeste 12 Sur 0 1011.3 1 59
2019-10-27 09:00:00 17.4 4 Sur 13 Sudeste 0 1011.2 1 57
2019-10-27 08:00:00 16.4 6 Sur 13 Sur 0 1010.7 0.4 58
2019-10-27 07:00:00 15.7 7 Sur 11 Sur 0 1010.3 -0.2 66
2019-10-27 06:00:00 16.4 3 Oeste 11 Oeste 0 1010.2 -0.6 59
2019-10-27 05:00:00 17.1 8 Sudoeste 12 Sudoeste 0 1010.3 -0.3 54
2019-10-27 04:00:00 16.8 9 Oeste 14 Sudoeste 0 1010.5 -0.2 59
2019-10-27 03:00:00 17.1 11 Oeste 17 Sudoeste 0 1010.8 0.4 62
2019-10-27 02:00:00 17 14 Sudoeste 20 Oeste 0 1010.6 0.2 61
2019-10-27 01:00:00 16.7 14 Sudoeste 20 Sudoeste 0 1010.4 0.6 76
2019-10-27 00:00:00 16.4 15 Oeste 21 Oeste 0 1010.4 1.1 81
2019-10-26 23:00:00 16.8 14 Oeste 18 Oeste 0 1010 1.2 71
2019-10-26 22:00:00 17.1 13 Oeste 17 Oeste 0 1009.8 1.3 83
2019-10-26 21:00:00 17.4 14 Oeste 15 Oeste 0 1009.3 1.3 87
2019-10-26 20:00:00 17.8 11 Oeste 20 Oeste 0 1008.8 0.7 83
2019-10-26 19:00:00 18.2 18 Oeste 24 Oeste 0 1008.5 0.1 83
2019-10-26 18:00:00 19.7 12 Sudoeste 17 Oeste 0 1008 -0.6 77
2019-10-26 17:00:00 25 7 Sudeste 12 Sudeste 0 1008.1 -1.1 54
2019-10-26 16:00:00 24.4 7 Este 12 Este 0 1008.4 -1.4 53
2019-10-26 15:00:00 25.9 9 Este 15 Sur 0 1008.6 -1.2 43
2019-10-26 14:00:00 24.8 6 Sudeste 13 Sudeste 0 1009.2 -0.3 47
2019-10-26 13:00:00 23.8 5 Sudeste 10 Sudoeste 0 1009.8 0.8 48
2019-10-26 12:00:00 23.6 5 Sudoeste 12 Sur 0 1009.8 1.2 47
2019-10-26 11:00:00 21.1 4 Este 7 Sudoeste 0 1009.5 1.2 49
2019-10-26 10:00:00 19 6 Sur 23 Sudeste 0 1009 0.5 54
2019-10-26 09:00:00 15.5 9 Sudeste 15 Sudeste 0 1008.6 -0.2 66
2019-10-26 08:00:00 13.7 12 Sudeste 15 Sudeste 0 1008.3 -0.9 91
2019-10-26 07:00:00 14.3 7 Sudeste 9 Sudeste 0 1008.5 -1.2 93
2019-10-26 06:00:00 14.4 3 Nordeste 11 Sudeste 0 1008.8 -1.5 94
2019-10-26 05:00:00 14 9 Sudeste 10 Sudeste 0 1009.2 -1.5 98
2019-10-26 04:00:00 13.4 11 Sur 15 Sur 0 1009.7 -1.1 96
2019-10-26 03:00:00 14.9 6 Sudoeste 9 Oeste 0 1010.3 -0.7 95
2019-10-26 02:00:00 14.8 6 Oeste 11 Oeste 0 1010.7 -0.6 94
2019-10-26 01:00:00 15.4 7 Oeste 9 Oeste 0 1010.8 -0.7 93
2019-10-26 00:00:00 15.4 4 Sudoeste 10 Sudoeste 0 1011 -0.7 92
2019-10-25 23:00:00 15.6 8 Sudoeste 10 Sudoeste 0 1011.3 -0.4 93
2019-10-25 22:00:00 15.7 5 Sudoeste 8 Sudoeste 0 1011.5 -0.1 96
2019-10-25 21:00:00 15.9 5 Oeste 10 Oeste 0 1011.7 -0.3 93
2019-10-25 20:00:00 16.2 6 Oeste 14 Oeste 0 1011.7 -0.5 92
2019-10-25 19:00:00 17.2 10 Oeste 17 Oeste 0 1011.6 -0.5 89
2019-10-25 18:00:00 17.8 15 Oeste 21 Oeste 0 1012 0.2 87
2019-10-25 17:00:00 18.4 13 Oeste 20 Noroeste 0 1012.2 -0.4 82
2019-10-25 16:00:00 17.7 15 Noroeste 21 Noroeste 0 1012.1 -1.5 82
2019-10-25 15:00:00 17.8 7 Norte 10 Norte 0 1011.8 -2.1 81
2019-10-25 14:00:00 17.7 3 Norte 10 Noroeste 0 1012.6 -1.4 78
2019-10-25 13:00:00 17.7 6 Noroeste 12 Oeste 0 1013.6 -0.2 78
2019-10-25 12:00:00 17.1 6 Noroeste 10 Noroeste 0 1013.9 0.2 85
2019-10-25 11:00:00 17.5 4 Norte 9 Sur 0 1014 0.4 79
2019-10-25 10:00:00 16.3 6 Sudeste 14 Sur 0 1013.8 0.2 80
2019-10-25 09:00:00 14.7 8 Sudeste 13 Sudeste 0 1013.7 0.3 91
2019-10-25 08:00:00 14.3 9 Sudeste 13 Sudeste 0 1013.6 0.3 91
2019-10-25 07:00:00 14.6 9 Este 12 Sudeste 0 1013.6 -0.1 90
2019-10-25 06:00:00 14.3 9 Sudeste 17 Sur 0 1013.4 -0.6 86
2019-10-25 05:00:00 14.2 14 Sudeste 21 Sudeste 0 1013.3 -1.2 87
2019-10-25 04:00:00 14.7 15 Sudeste 20 Sudeste 0 1013.7 -0.8 87
2019-10-25 03:00:00 14.6 14 Sudeste 16 Sudeste 0 1014 -0.3 88
2019-10-25 02:00:00 14.7 12 Sudeste 15 Sudeste 0 1014.5 0.5 88
2019-10-25 01:00:00 15.1 13 Sur 15 Sur 0 1014.5 0.9 87
2019-10-25 00:00:00 15.5 13 Sur 17 Sur 0 1014.3 1.3 87
2019-10-24 23:00:00 15.4 13 Sur 16 Sur 0 1014 1.3 89
2019-10-24 22:00:00 16.5 9 Sudoeste 15 Sur 0 1013.6 1.4 83
2019-10-24 21:00:00 16.2 10 Sudoeste 15 Sudoeste 0 1013 1.5 84
2019-10-24 20:00:00 16.4 11 Sudoeste 16 Sudoeste 0 1012.7 2.1 86
2019-10-24 19:00:00 16.9 8 Sudoeste 27 Noroeste 0 1012.2 2.3 86
2019-10-24 18:00:00 17.3 21 Oeste 38 Oeste 0 1011.5 2.1 85
2019-10-24 17:00:00 17.3 28 Noroeste 50 Noroeste 0 1010.6 1.6 84
2019-10-24 16:00:00 17.8 30 Noroeste 50 Noroeste 0 1009.9 1.5 80
2019-10-24 15:00:00 17.4 28 Oeste 42 Oeste 0 1009.4 1.6 87
2019-10-24 14:00:00 17.8 26 Oeste 40 Oeste 0 1009 2 79
2019-10-24 13:00:00 14.3 23 Sudoeste 35 Sudoeste 2.8 1008.4 1.9 90
2019-10-24 12:00:00 13.8 20 Sudoeste 38 Sur 0.4 1007.8 2.3 89
2019-10-24 11:00:00 12.8 23 Sudoeste 36 Sudoeste 0 1007 1.8 90
2019-10-24 10:00:00 13.4 17 Sudoeste 31 Sudoeste 0 1006.5 1.8 75
2019-10-24 09:00:00 12.8 18 Sudoeste 31 Sudoeste 0 1005.5 1.3 73
2019-10-24 08:00:00 13 19 Sudoeste 32 Sudoeste 0 1005.2 1 70
2019-10-24 07:00:00 12.5 13 Sudoeste 41 Sudoeste 0 1004.7 0.5 78
2019-10-24 06:00:00 12.7 26 Oeste 51 Oeste 1.6 1004.2 0.3 82
2019-10-24 05:00:00 11.6 18 Sudoeste 35 Sudoeste 3 1004.2 0.4 90
2019-10-24 04:00:00 11.1 17 Sudoeste 35 Sudoeste 4.8 1004.2 0.8 94
2019-10-24 03:00:00 11.7 18 Sudoeste 56 Noroeste 5 1003.9 0.8 92
2019-10-24 02:00:00 11.1 21 Sudoeste 38 Sudoeste 4.6 1003.8 2 93
2019-10-24 01:00:00 11.1 18 Sudoeste 44 Sudoeste 4.2 1003.4 2 89
2019-10-24 00:00:00 12 29 Oeste 73 Oeste 1.8 1003.1 2.3 90
2019-10-23 23:00:00 12.8 49 Oeste 75 Oeste 4.6 1001.8 2.2 90
2019-10-23 22:00:00 13 45 Oeste 76 Oeste 5.8 1001.4 2.4 92
2019-10-23 21:00:00 12.8 50 Oeste 81 Oeste 9.6 1000.8 2.6 92
2019-10-23 20:00:00 12.7 58 Oeste 91 Oeste 10.2 999.6 1.7 97
2019-10-23 19:00:00 13.1 57 Oeste 85 Oeste 7.6 999 1 98
2019-10-23 18:00:00 13.3 55 Oeste 84 Oeste 0 998.2 0.1 95
2019-10-23 17:00:00 13.6 57 Oeste 81 Oeste 0.2 997.9 -0.7 97
2019-10-23 16:00:00 14.1 50 Oeste 76 Oeste 0 998 -1.2 99
2019-10-23 15:00:00 14 42 Oeste 62 Oeste 0 998.1 -0.9 99
2019-10-23 14:00:00 13.9 32 Oeste 47 Oeste 0.4 998.6 -0.1 100
2019-10-23 13:00:00 14.9 15 Sudoeste 28 Sudoeste 0 999.2 0.7 99
2019-10-23 12:00:00 15.4 6 Noroeste 13 Norte 0.2 999 0.3 100
2019-10-23 11:00:00 15.4 11 Norte 39 Norte 1.2 998.7 0.1 100
2019-10-23 10:00:00 15.2 29 Norte 48 Norte 7 998.5 -0.5 100
2019-10-23 09:00:00 15.2 26 Norte 42 Norte 13 998.7 -0.9 100
2019-10-23 08:00:00 15.4 21 Norte 36 Norte 0.8 998.6 -1.6 100
2019-10-23 07:00:00 14.8 5 Norte 12 Este 0 999 -2.3 100
2019-10-23 06:00:00 14.9 12 Nordeste 61 Norte 2.4 999.6 -3.2 100
2019-10-23 05:00:00 15 39 Norte 54 Norte 0.6 1000.2 -2.7 100
2019-10-23 04:00:00 14.8 33 Norte 50 Norte 1.8 1001.3 -3.8 100
2019-10-23 03:00:00 14.4 26 Norte 40 Norte 0.6 1002.8 -3 99
2019-10-23 02:00:00 13.9 26 Norte 40 Norte 1 1002.9 -3 98
2019-10-23 01:00:00 13.8 26 Norte 39 Nordeste 0.4 1005.1 -1.7 94
2019-10-23 00:00:00 13.2 22 Norte 38 Norte 4.6 1005.8 -1.8 96
2019-10-22 23:00:00 12.4 13 Sudoeste 19 Sudoeste 0.6 1005.9 -2.1 96
2019-10-22 22:00:00 12.6 7 Sudoeste 14 Sur 0.6 1006.8 -1.5 95
2019-10-22 21:00:00 12.7 10 Sudeste 19 Sudeste 0.8 1007.6 -1.1 95
2019-10-22 20:00:00 13 10 Sudeste 43 Este 1.4 1008 -1.3 92
2019-10-22 19:00:00 14.2 32 Nordeste 44 Este 0.4 1008.3 -2 85
2019-10-22 18:00:00 13.4 9 Oeste 14 Norte 0.6 1008.7 -2 95
2019-10-22 17:00:00 13.4 9 Sudoeste 12 Oeste 1 1009.3 -2.3 95
2019-10-22 16:00:00 13.3 5 Sudoeste 12 Sudoeste 0 1010.3 -2.3 94
2019-10-22 15:00:00 13.2 7 Sudoeste 12 Sudoeste 0.6 1010.7 -2.1 93
2019-10-22 14:00:00 13 6 Sudoeste 13 Oeste 2.4 1011.6 -1.5 91
2019-10-22 13:00:00 13.2 10 Sudoeste 17 Sudoeste 0.4 1012.6 -0.9 84
2019-10-22 12:00:00 12.6 8 Sudoeste 14 Sudoeste 0 1012.8 0 80
2019-10-22 11:00:00 11.9 9 Sudoeste 16 Sur 0 1013.1 0 80
2019-10-22 10:00:00 11 11 Sudoeste 14 Sudoeste 0 1013.5 0.5 82
2019-10-22 09:00:00 10.5 10 Sudoeste 15 Sur 0 1012.8 -0.4 84
2019-10-22 08:00:00 10.5 13 Sur 17 Sur 0 1013.1 -0.5 82
2019-10-22 07:00:00 10.4 12 Sudoeste 14 Sudoeste 0 1013 -0.2 85
2019-10-22 06:00:00 10.5 11 Sur 14 Sur 0 1013.2 -0.2 86
2019-10-22 05:00:00 10.9 13 Sur 14 Sur 0 1013.6 0 84
2019-10-22 04:00:00 11 9 Sur 14 Sur 0 1013.2 -0.5 85
2019-10-22 03:00:00 11.2 11 Sur 15 Sudoeste 0 1013.4 -0.4 85
2019-10-22 02:00:00 11.6 13 Sur 16 Sur 0 1013.6 -0.4 84
2019-10-22 01:00:00 11.9 9 Sudoeste 12 Sur 0 1013.7 0.2 84
2019-10-22 00:00:00 12.3 12 Sur 15 Sur 0 1013.8 0.6 84
2019-10-21 23:00:00 12.7 11 Sur 13 Sur 0 1014 1.2 81
2019-10-21 22:00:00 13.1 11 Sur 13 Sur 0 1013.5 1.2 81
2019-10-21 21:00:00 14 3 Este 9 Norte 0 1013.2 1.2 72
2019-10-21 20:00:00 14.1 3 Este 10 Norte 0 1012.8 1 72
2019-10-21 19:00:00 14.8 6 Norte 14 Norte 0 1012.3 0.4 71
2019-10-21 18:00:00 15.9 6 Norte 16 Norte 0 1012 0 65
2019-10-21 17:00:00 16.1 8 Noroeste 14 Norte 0 1011.8 -0.2 61
2019-10-21 16:00:00 16.1 9 Noroeste 21 Noroeste 0 1011.9 -0.3 63
2019-10-21 15:00:00 16.1 11 Noroeste 23 Oeste 0 1012 -0.1 66
2019-10-21 14:00:00 16 18 Oeste 27 Oeste 0 1012 0 66
2019-10-21 13:00:00 15.9 18 Oeste 25 Oeste 0 1012.2 0.8 66
2019-10-21 12:00:00 16.1 16 Oeste 24 Oeste 0 1012.1 1.5 66
2019-10-21 11:00:00 14 12 Sur 21 Sur 0 1012 1.8 73
2019-10-21 10:00:00 11.4 17 Sur 23 Sur 0 1011.4 1.4 80
2019-10-21 09:00:00 11.3 15 Sudoeste 36 Sudoeste 3.6 1010.6 1.1 85
2019-10-21 08:00:00 10.9 20 Sur 28 Sur 2.2 1010.2 0.5 84
2019-10-21 07:00:00 10.9 17 Sur 22 Sur 0 1010 0.3 84
2019-10-21 06:00:00 10.9 19 Sur 26 Sur 1.8 1009.5 0.2 92
2019-10-21 05:00:00 11.3 15 Sur 22 Sur 0.2 1009.7 0.9 88
2019-10-21 04:00:00 11.4 11 Sudeste 23 Sudoeste 0 1009.7 0.9 85
2019-10-21 03:00:00 11.4 15 Sudoeste 27 Sudoeste 0.2 1009.3 0.6 80
2019-10-21 02:00:00 11.6 13 Sudoeste 28 Sudoeste 0 1008.8 0.5 77
2019-10-21 01:00:00 11.4 14 Sudoeste 27 Sudoeste 0 1008.8 1.5 82
2019-10-21 00:00:00 11.2 18 Sudoeste 32 Sudoeste 0 1008.7 1.8 86
2019-10-20 23:00:00 11.2 18 Sudoeste 29 Sudoeste 3.8 1008.3 2.1 90
2019-10-20 22:00:00 11.5 14 Sudoeste 28 Sudoeste 0.2 1007.3 2.1 85
2019-10-20 21:00:00 11.8 16 Sudoeste 32 Oeste 0.2 1006.9 2.1 85
2019-10-20 20:00:00 12 19 Sudoeste 37 Oeste 0 1006.2 2.1 85
2019-10-20 19:00:00 11.9 15 Sudoeste 31 Sudoeste 0 1005.2 1.4 90
2019-10-20 18:00:00 12 15 Sudoeste 32 Sudoeste 0 1004.8 1.7 89
2019-10-20 17:00:00 12.1 16 Sudoeste 30 Sudoeste 0 1004.1 1.1 89
2019-10-20 16:00:00 12.1 15 Sudoeste 32 Sudoeste 0.6 1003.8 0.6 89
2019-10-20 15:00:00 12.1 15 Sudoeste 31 Oeste 3.4 1003.1 0.3 90
2019-10-20 14:00:00 12.1 16 Sudoeste 27 Sudoeste 0.6 1003 0.7 88
2019-10-20 13:00:00 11.4 12 Sudoeste 27 Oeste 1 1003.2 1.7 92
2019-10-20 12:00:00 11.4 13 Sudoeste 27 Sudoeste 0.2 1002.8 2.4 91
2019-10-20 11:00:00 11.2 18 Sudoeste 37 Sudoeste 1.4 1002.3 2.6 92
2019-10-20 10:00:00 11.4 19 Oeste 51 Noroeste 1.6 1001.5 2.8 93
2019-10-20 09:00:00 13.2 29 Noroeste 50 Noroeste 1.2 1000.4 2.8 88
2019-10-20 08:00:00 13.1 19 Noroeste 41 Norte 2.6 999.7 2.6 90
2019-10-20 07:00:00 12.6 28 Norte 46 Norte 3 998.7 1.6 87
2019-10-20 06:00:00 13.8 33 Norte 45 Nordeste 0 997.6 0.4 91
2019-10-20 05:00:00 13.9 28 Norte 40 Norte 0.2 997.1 -0.3 92
2019-10-20 04:00:00 13.2 31 Norte 53 Norte 5 997.1 -0.2 98
2019-10-20 03:00:00 13.5 19 Norte 31 Norte 4.8 997.2 0 95
2019-10-20 02:00:00 12.8 10 Oeste 21 Oeste 4.2 997.4 0.1 98
2019-10-20 01:00:00 12.9 13 Noroeste 20 Norte 0.2 997.3 -0.1 98
2019-10-20 00:00:00 12.9 10 Sudoeste 17 Sudoeste 1.4 997.2 -0.2 97
2019-10-19 23:00:00 13.1 7 Sudoeste 12 Nordeste 1 997.3 0 94
2019-10-19 22:00:00 13.7 11 Nordeste 19 Nordeste 1.2 997.4 0.6 90
2019-10-19 21:00:00 14.3 13 Nordeste 28 Norte 3.8 997.4 0.4 92
2019-10-19 20:00:00 14.3 15 Norte 32 Norte 3.8 997.3 0 94
2019-10-19 19:00:00 14.4 20 Norte 29 Norte 2 996.8 -0.5 94
2019-10-19 18:00:00 14.8 12 Norte 22 Norte 1.2 997 -1.1 94
2019-10-19 17:00:00 15 15 Norte 24 Norte 1 997.3 -1.8 93
2019-10-19 16:00:00 15.1 17 Norte 23 Norte 0 997.3 -2 94
2019-10-19 15:00:00 15.1 14 Norte 21 Noroeste 0.2 998.1 -1.8 92
2019-10-19 14:00:00 15.2 13 Norte 20 Norte 1 999.1 -0.9 94
2019-10-19 13:00:00 15.6 9 Norte 15 Norte 0.8 999.3 -0.8 93
2019-10-19 12:00:00 15.6 8 Noroeste 17 Noroeste 1 999.9 -0.3 92
2019-10-19 11:00:00 16.6 6 Oeste 10 Noroeste 0 1000 0 89
2019-10-19 10:00:00 16.7 4 Norte 12 Noroeste 0 1000.1 0.1 85
2019-10-19 09:00:00 16.3 6 Noroeste 28 Noroeste 0 1000.2 0.2 86
2019-10-19 08:00:00 16.4 21 Norte 32 Noroeste 0 1000 -0.2 90
2019-10-19 07:00:00 16 11 Oeste 19 Oeste 0 1000 -0.8 88
2019-10-19 06:00:00 15.4 6 Oeste 10 Sur 0 1000 -1.3 83
2019-10-19 05:00:00 14.8 9 Sur 12 Sur 0 1000.2 -1.8 84
2019-10-19 04:00:00 15 9 Sur 12 Sur 0.4 1000.8 -1.7 86
2019-10-19 03:00:00 15.6 0 Calma 9 Sudoeste 0 1001.3 -1.8 78
2019-10-19 02:00:00 15.5 3 Norte 14 Sudeste 0 1002 -1.2 87
2019-10-19 01:00:00 15.4 10 Sudeste 13 Sudeste 0.2 1002.5 -1.2 86
2019-10-19 00:00:00 15.9 6 Sudeste 14 Sudeste 0 1003.1 -1.2 79
2019-10-18 23:00:00 16.7 12 Sudeste 19 Este 0 1003.2 -1.4 77
2019-10-18 22:00:00 16.6 12 Este 17 Este 0 1003.7 -1.4 78
2019-10-18 21:00:00 16.8 9 Este 14 Sudeste 0 1004.3 -2 77
2019-10-18 20:00:00 16.6 10 Sudeste 14 Este 0 1004.6 -1.8 75
2019-10-18 19:00:00 16.8 9 Este 12 Este 0 1005.1 -1.8 68
2019-10-18 18:00:00 17.3 6 Nordeste 11 Nordeste 0 1006.3 -1.5 69
2019-10-18 17:00:00 17.8 9 Este 12 Este 0 1006.4 -2.1 64
2019-10-18 16:00:00 18.3 6 Norte 17 Norte 0 1006.9 -2.1 62
2019-10-18 15:00:00 18.6 7 Noroeste 17 Oeste 0 1007.8 -1.3 60
2019-10-18 14:00:00 19 10 Noroeste 19 Oeste 0 1008.5 -0.9 61
2019-10-18 13:00:00 18.8 8 Oeste 15 Oeste 0 1009 -0.3 64
2019-10-18 12:00:00 18.2 7 Sudoeste 14 Sudoeste 0 1009.1 0.1 72
2019-10-18 11:00:00 16.6 9 Sur 13 Sudoeste 0 1009.4 0.9 79
2019-10-18 10:00:00 16.5 8 Sudoeste 15 Oeste 0 1009.3 0.9 77
2019-10-18 09:00:00 16.3 8 Sudoeste 18 Sudoeste 0 1009 1 78
2019-10-18 08:00:00 16 10 Sudoeste 18 Sur 0 1008.5 0.6 82
2019-10-18 07:00:00 16 12 Sur 18 Sur 0 1008.4 0.5 83
2019-10-18 06:00:00 15.9 10 Sur 15 Sur 0 1008 0 87
2019-10-18 05:00:00 16 12 Sur 16 Sudoeste 0 1007.9 0.1 87
2019-10-18 04:00:00 16.3 7 Sudoeste 11 Sudoeste 0 1007.9 0.2 83
2019-10-18 03:00:00 16.4 7 Sudoeste 12 Sudoeste 0 1008 -0.2 84
2019-10-18 02:00:00 16.3 6 Sudoeste 9 Oeste 0 1007.8 -0.5 84
2019-10-18 01:00:00 16.5 4 Sudoeste 10 Sur 0 1007.7 -0.3 86
2019-10-18 00:00:00 16.6 7 Sur 9 Sur 0 1008.2 0.2 87
2019-10-17 23:00:00 16.6 5 Sur 8 Sur 0 1008.3 0.4 87
2019-10-17 22:00:00 16.6 4 Sudoeste 6 Oeste 0 1008 0.1 86
2019-10-17 21:00:00 16.9 5 Oeste 7 Sudoeste 0 1008 0.1 85
2019-10-17 20:00:00 17 4 Oeste 7 Noroeste 0 1007.9 0.1 80
2019-10-17 19:00:00 17.3 5 Oeste 17 Noroeste 0 1007.9 0.2 77
2019-10-17 18:00:00 17.5 11 Noroeste 22 Noroeste 0 1007.9 0.7 76
2019-10-17 17:00:00 17.3 15 Noroeste 26 Noroeste 0 1007.8 0.8 80
2019-10-17 16:00:00 17.1 19 Noroeste 43 Noroeste 0 1007.7 0.9 86
2019-10-17 15:00:00 17.1 29 Noroeste 42 Noroeste 0 1007.2 0.1 90
2019-10-17 14:00:00 19 14 Norte 22 Norte 0 1007 -0.2 86
2019-10-17 13:00:00 19.5 12 Nordeste 18 Este 0 1006.8 -0.4 84
2019-10-17 12:00:00 18.8 7 Norte 12 Norte 0 1007.1 0.9 86
2019-10-17 11:00:00 18.5 3 Norte 12 Norte 0 1007.2 2.2 86
2019-10-17 10:00:00 17.8 10 Norte 23 Noroeste 0 1007.2 3.2 92
2019-10-17 09:00:00 17.5 17 Noroeste 25 Noroeste 0 1006.2 2.3 89
2019-10-17 08:00:00 17.1 14 Sudoeste 30 Sudoeste 0 1005 0.5 74
2019-10-17 07:00:00 18 20 Sudoeste 46 Sur 0 1004 -1.5 67
2019-10-17 06:00:00 17.6 27 Sur 39 Sur 0 1003.9 -1.3 72
2019-10-17 05:00:00 16.7 23 Sur 35 Sur 1.4 1004.5 0.1 80
2019-10-17 04:00:00 16.7 14 Sudoeste 31 Sudoeste 1.2 1005.5 1.2 82
2019-10-17 03:00:00 18.5 21 Sudoeste 51 Sur 0 1005.2 0.8 69
2019-10-17 02:00:00 19.1 30 Sur 51 Sur 0 1004.4 -0.2 64
2019-10-17 01:00:00 19.8 27 Sur 51 Sur 0 1004.3 -1.1 58
2019-10-17 00:00:00 19.2 31 Sur 53 Sur 0 1004.4 -1.1 62
2019-10-16 23:00:00 18.5 34 Sur 53 Sur 0.2 1004.6 -0.9 68
2019-10-16 22:00:00 18.9 24 Sur 43 Sur 0 1005.4 0.7 64
2019-10-16 21:00:00 17.9 24 Sur 42 Sur 0.2 1005.5 1.4 72
2019-10-16 20:00:00 18.5 25 Sur 46 Sur 0.2 1005.5 1.5 67
2019-10-16 19:00:00 20.5 28 Sur 52 Sur 0 1004.7 0.4 52
2019-10-16 18:00:00 21.1 30 Sur 48 Sur 0 1004.1 -0.6 50
2019-10-16 17:00:00 21.6 30 Sur 49 Sur 0 1004 -0.7 48
2019-10-16 16:00:00 21.3 32 Sur 54 Sur 0 1004.3 -0.8 49
2019-10-16 15:00:00 22.7 24 Sur 48 Sur 0 1004.7 -1 46
2019-10-16 14:00:00 22 28 Sur 49 Sur 0 1004.7 -1.9 48
2019-10-16 13:00:00 18.9 32 Sur 60 Sur 0 1005.1 -1.2 56
2019-10-16 12:00:00 16.8 22 Sur 42 Sur 0.4 1005.7 0.3 70
2019-10-16 11:00:00 16.4 26 Sur 45 Sur 0 1006.6 1.4 71
2019-10-16 10:00:00 18 30 Sur 45 Sur 0 1006.3 1.2 57
2019-10-16 09:00:00 18 28 Sur 48 Sur 0 1005.4 0.2 55
2019-10-16 08:00:00 18 30 Sur 45 Sur 0 1005.2 -0.5 54
2019-10-16 07:00:00 17.9 30 Sur 50 Sur 0 1005.1 -1.1 54
2019-10-16 06:00:00 18.1 29 Sur 44 Sur 0 1005.2 -1.3 55
2019-10-16 05:00:00 18 28 Sur 45 Sur 0 1005.7 -1.3 55
2019-10-16 04:00:00 17.8 27 Sur 47 Sur 0 1006.2 -1.5 55
2019-10-16 03:00:00 17.8 28 Sur 43 Sur 0 1006.5 -2.1 54
2019-10-16 02:00:00 18 24 Sur 36 Sur 0 1007 -1.9 52
2019-10-16 01:00:00 17.5 21 Sur 35 Sur 0 1007.7 -1.1 54
2019-10-16 00:00:00 17.3 18 Sur 28 Sudoeste 0 1008.6 -0.3 54
2019-10-15 23:00:00 17.7 14 Sudoeste 32 Sur 0 1008.9 0 52
2019-10-15 22:00:00 18 19 Sur 35 Sur 0 1008.8 0 51
2019-10-15 21:00:00 18.4 20 Sudoeste 37 Sudoeste 0 1008.9 -0.2 48
2019-10-15 20:00:00 18.4 20 Sur 34 Sur 0 1008.9 -0.4 46
2019-10-15 19:00:00 18.9 17 Sur 25 Sur 0 1008.8 -1 47
2019-10-15 18:00:00 19.8 15 Sur 31 Sur 0 1009.1 -0.9 42
2019-10-15 17:00:00 20 5 Sudeste 12 Sudoeste 0 1009.3 -0.7 40
2019-10-15 16:00:00 19.6 5 Noroeste 17 Noroeste 0 1009.8 -0.7 49
2019-10-15 15:00:00 20 11 Oeste 25 Oeste 0 1010 -0.8 42
2019-10-15 14:00:00 20 15 Oeste 27 Oeste 0 1010 -0.6 38
2019-10-15 13:00:00 18.9 15 Oeste 28 Oeste 0 1010.5 0.6 41
2019-10-15 12:00:00 18.2 15 Sudoeste 27 Sudoeste 0 1010.8 1.4 42
2019-10-15 11:00:00 16 15 Sudoeste 28 Sudoeste 0 1010.6 1.6 47
2019-10-15 10:00:00 14.5 17 Sudoeste 27 Sudoeste 0 1009.9 1.2 51
2019-10-15 09:00:00 14.2 17 Sudoeste 36 Oeste 0 1009.4 1.5 53
2019-10-15 08:00:00 14 21 Sudoeste 44 Oeste 0 1009 1.1 59
2019-10-15 07:00:00 13.8 20 Sudoeste 59 Oeste 0 1008.7 0.8 58
2019-10-15 06:00:00 15.2 33 Oeste 60 Oeste 0 1007.9 0.4 60
2019-10-15 05:00:00 13.6 22 Sudoeste 39 Oeste 0 1007.9 0.4 58
2019-10-15 04:00:00 13.3 19 Sudoeste 49 Oeste 0 1007.9 1.1 58
2019-10-15 03:00:00 14.7 28 Oeste 55 Oeste 0 1007.5 1.3 60
2019-10-15 02:00:00 14.4 44 Oeste 67 Oeste 0 1007.5 1.8 67
2019-10-15 01:00:00 14.9 42 Oeste 64 Noroeste 0 1006.8 2 60
2019-10-15 00:00:00 14.9 45 Oeste 63 Oeste 0 1006.2 1.3 63
2019-10-14 23:00:00 15.1 39 Oeste 68 Oeste 0 1005.7 1.5 66
2019-10-14 22:00:00 15 38 Oeste 61 Oeste 0.2 1004.8 1.4 69
2019-10-14 21:00:00 13.7 12 Sudoeste 50 Oeste 1.2 1004.9 2.5 87
2019-10-14 20:00:00 13.9 33 Oeste 57 Oeste 2.2 1004.2 3.4 86
2019-10-14 19:00:00 14.1 37 Oeste 64 Oeste 0 1003.4 2.5 87
2019-10-14 18:00:00 17.1 18 Noroeste 30 Noroeste 0 1002.4 1.5 70
2019-10-14 17:00:00 17.3 13 Nordeste 20 Nordeste 0 1000.8 -0.3 81
2019-10-14 16:00:00 17.8 9 Norte 18 Norte 0 1000.9 0.1 76
2019-10-14 15:00:00 17.1 12 Norte 18 Norte 0 1000.9 0.3 74
2019-10-14 14:00:00 17.1 8 Noroeste 15 Oeste 0 1001.1 0.6 72
2019-10-14 13:00:00 15.9 12 Noroeste 38 Oeste 1.6 1000.8 0.5 77
2019-10-14 12:00:00 16.7 8 Oeste 15 Oeste 0 1000.6 0.3 78
2019-10-14 11:00:00 15.4 8 Sudoeste 22 Sudoeste 1.4 1000.5 0.3 89
2019-10-14 10:00:00 15.6 9 Sudoeste 20 Sudoeste 1.4 1000.3 0.2 89
2019-10-14 09:00:00 16.1 10 Sudoeste 30 Oeste 0 1000.3 0.9 84
2019-10-14 08:00:00 16.4 22 Noroeste 44 Noroeste 0 1000.2 2.2 82
2019-10-14 07:00:00 16.4 31 Noroeste 57 Oeste 0 1000.1 2 87
2019-10-14 06:00:00 17.4 38 Oeste 58 Oeste 0 999.4 0.7 92
2019-10-14 05:00:00 20.9 19 Oeste 40 Oeste 0 998 -1.8 73
2019-10-14 04:00:00 21.8 10 Sudoeste 33 Sur 0 998.1 -2.5 46
2019-10-14 03:00:00 20.7 15 Sur 27 Sur 0 998.7 -2.9 51
2019-10-14 02:00:00 19.8 12 Sur 22 Sur 0 999.8 -2.4 56
2019-10-14 01:00:00 17 9 Sur 21 Sur 0 1000.6 -1.8 95
2019-10-14 00:00:00 17.3 10 Sudeste 17 Este 0 1001.6 -1.3 95